This is the latest recevied weather packets stored in our database for station/object SALT. If no packets are shown the sender has not sent any weather packets the latest 10 day(s).
| Time | Temp. | Humidity | Pressure | Rain* | Wind** | Luminosity | Snow |
|---|---|---|---|---|---|---|---|
| 1778100063 | 16.67° C | 43% | 1020.9 hPa | 0 mm | - | - | - |
| 1778099459 | 16.11° C | 47% | 1021 hPa | 0 mm | - | - | - |
| 1778098857 | 16.11° C | 45% | 1021.1 hPa | 0 mm | - | - | - |
| 1778098254 | 15.56° C | 46% | 1021.2 hPa | 0 mm | - | - | - |
| 1778097651 | 16.11° C | 46% | 1021.1 hPa | 0 mm | - | - | - |
| 1778097085 | 15.56° C | 45% | 1021.3 hPa | 0 mm | - | - | - |
| 1778097049 | 15.56° C | 45% | 1021.3 hPa | 0 mm | - | - | - |
| 1778096444 | 15° C | 46% | 1021.4 hPa | 0 mm | - | - | - |
| 1778095842 | 15.56° C | 46% | 1021.4 hPa | 0 mm | - | - | - |
| 1778095240 | 14.44° C | 50% | 1021.3 hPa | 0 mm | - | - | - |
| 1778094637 | 14.44° C | 47% | 1021.4 hPa | 0 mm | - | - | - |
| 1778094034 | 15° C | 46% | 1021.5 hPa | 0 mm | - | - | - |
| 1778093431 | 14.44° C | 47% | 1021.3 hPa | 0 mm | - | - | - |
| 1778092826 | 13.89° C | 49% | 1021.5 hPa | 0 mm | - | - | - |
| 1778092223 | 13.89° C | 49% | 1021.4 hPa | 0 mm | - | - | - |
| 1778091621 | 13.33° C | 51% | 1021.3 hPa | 0 mm | - | - | - |
| 1778091019 | 13.89° C | 49% | 1021.2 hPa | 0 mm | - | - | - |
| 1778090415 | 13.33° C | 51% | 1021.1 hPa | 0 mm | - | - | - |
| 1778089813 | 13.33° C | 51% | 1021.2 hPa | 0 mm | - | - | - |
| 1778089208 | 12.78° C | 54% | 1021.1 hPa | 0 mm | - | - | - |
| 1778088605 | 12.78° C | 54% | 1021.2 hPa | 0 mm | - | - | - |
| 1778088003 | 12.78° C | 53% | 1021.2 hPa | 0 mm | - | - | - |
| 1778087400 | 12.78° C | 53% | 1021.1 hPa | 0 mm | - | - | - |
| 1778086798 | 13.33° C | 52% | 1021 hPa | 0 mm | - | - | - |
| 1778086195 | 13.33° C | 51% | 1020.9 hPa | 0 mm | - | - | - |
* Rain latest 24 hours (hover to see other rain measurements)
** Current wind speed in m/s (hover to see current wind gust speed)